Time;durP1;ratioP1;P1;durP2;ratioP2;P2;SDS_P1;SDS_P2;PMS_P1;PMS_P2;Temp;Humidity;BMP_temperature;BMP_pressure;BME280_temperature;BME280_humidity;BME280_pressure;Samples;Min_cycle;Max_cycle;Signal;HPM_P1;HPM_P2
2021/12/29 00:00:31;;;;;;;64.90;43.67;;;10.40;91.30;;;;;;4954969;29;20428;-81
2021/12/29 00:03:00;;;;;;;61.63;43.75;;;10.40;91.30;;;;;;4955566;28;20043;-81
2021/12/29 00:05:26;;;;;;;67.35;46.75;;;10.50;91.30;;;;;;4953998;28;20542;-81
2021/12/29 00:07:52;;;;;;;66.60;44.92;;;10.50;91.20;;;;;;4953914;28;20380;-81
2021/12/29 00:10:19;;;;;;;59.88;42.92;;;10.60;91.10;;;;;;4955717;29;20040;-81
2021/12/29 00:12:49;;;;;;;70.03;46.42;;;10.60;91.10;;;;;;4955425;28;20039;-81
2021/12/29 00:15:17;;;;;;;68.40;45.45;;;10.60;91.00;;;;;;4954670;28;20050;-81
2021/12/29 00:17:45;;;;;;;66.45;46.20;;;10.60;90.90;;;;;;4954558;28;20206;-81
2021/12/29 00:20:13;;;;;;;61.38;43.10;;;10.60;90.80;;;;;;4955055;29;20526;-81
2021/12/29 00:22:39;;;;;;;78.15;53.58;;;10.60;90.80;;;;;;4955172;28;20138;-81
2021/12/29 00:25:06;;;;;;;55.10;40.83;;;10.60;90.70;;;;;;4954635;28;20035;-81
2021/12/29 00:27:32;;;;;;;63.22;44.30;;;10.50;90.90;;;;;;4949982;28;20079;-81
2021/12/29 00:29:57;;;;;;;60.42;42.55;;;10.50;91.00;;;;;;4954807;28;20507;-81
2021/12/29 00:32:23;;;;;;;55.70;40.85;;;10.50;91.00;;;;;;4952994;28;20031;-81
2021/12/29 00:34:49;;;;;;;58.70;41.22;;;10.40;91.10;;;;;;4954616;28;20084;-81
2021/12/29 00:37:14;;;;;;;62.40;44.63;;;10.40;91.10;;;;;;4952229;28;20130;-81
2021/12/29 00:39:40;;;;;;;58.60;42.42;;;10.40;91.10;;;;;;4955075;28;20040;-81
2021/12/29 00:42:06;;;;;;;59.90;43.08;;;10.50;91.00;;;;;;4954647;28;20086;-81
2021/12/29 00:44:33;;;;;;;58.63;42.78;;;10.50;91.00;;;;;;4959094;28;20047;-82
2021/12/29 00:46:59;;;;;;;62.35;43.78;;;10.50;91.00;;;;;;4950612;28;20031;-81
2021/12/29 00:49:31;;;;;;;57.42;41.40;;;10.60;90.90;;;;;;4952893;29;20511;-81
2021/12/29 00:51:57;;;;;;;58.70;42.20;;;10.60;90.90;;;;;;4954277;28;20368;-81
2021/12/29 00:54:23;;;;;;;61.80;43.78;;;10.60;90.80;;;;;;4954502;28;20044;-82
2021/12/29 00:56:49;;;;;;;60.95;43.92;;;10.60;90.80;;;;;;4954127;29;20114;-82
2021/12/29 00:59:15;;;;;;;63.70;43.90;;;10.60;90.70;;;;;;4953013;28;20123;-82
2021/12/29 01:01:40;;;;;;;64.65;45.22;;;10.60;90.70;;;;;;4940677;29;20114;-81
2021/12/29 01:04:06;;;;;;;62.45;44.45;;;10.60;90.70;;;;;;4954294;28;20054;-82
2021/12/29 01:06:32;;;;;;;67.70;47.60;;;10.70;90.70;;;;;;4954145;28;20047;-81
2021/12/29 01:08:58;;;;;;;64.60;45.35;;;10.70;90.70;;;;;;4954302;28;20040;-81
2021/12/29 01:11:24;;;;;;;68.55;47.67;;;10.70;90.70;;;;;;4954096;28;20122;-81
2021/12/29 01:13:50;;;;;;;65.32;44.72;;;10.70;90.60;;;;;;4954063;29;20043;-80
2021/12/29 01:19:12;;;;;;;67.43;47.10;;;10.80;90.50;;;;;;4954637;29;20424;-81
2021/12/29 01:21:40;;;;;;;69.00;47.47;;;10.80;90.40;;;;;;4940017;28;20043;-81
2021/12/29 01:24:07;;;;;;;76.97;48.28;;;10.80;90.40;;;;;;4954982;29;20279;-82
2021/12/29 01:26:33;;;;;;;70.28;47.78;;;10.80;90.40;;;;;;4954335;28;20071;-83
2021/12/29 01:28:59;;;;;;;70.88;48.42;;;10.80;90.40;;;;;;4950274;29;20067;-82
2021/12/29 01:31:24;;;;;;;71.78;47.83;;;10.90;90.40;;;;;;4954209;28;20093;-83
2021/12/29 01:33:50;;;;;;;69.43;47.65;;;10.90;90.40;;;;;;4954224;28;20034;-82
2021/12/29 01:36:16;;;;;;;71.20;50.13;;;10.90;90.40;;;;;;4957306;28;20053;-82
2021/12/29 01:38:41;;;;;;;73.10;48.65;;;10.90;90.30;;;;;;4952718;29;20039;-81
2021/12/29 01:41:07;;;;;;;68.88;48.90;;;10.90;90.30;;;;;;4954689;28;20506;-81
2021/12/29 01:43:33;;;;;;;73.18;50.33;;;10.90;90.30;;;;;;4957873;29;20039;-81
2021/12/29 01:45:59;;;;;;;71.65;49.25;;;10.90;90.30;;;;;;4957018;28;20039;-81
2021/12/29 01:48:25;;;;;;;70.70;49.05;;;10.90;90.20;;;;;;4962388;28;20042;-81
2021/12/29 01:50:52;;;;;;;68.10;48.38;;;10.90;90.20;;;;;;4958014;28;20035;-81
2021/12/29 01:53:31;;;;;;;69.85;48.15;;;11.00;90.20;;;;;;4955947;29;20051;-82
2021/12/29 01:55:57;;;;;;;67.22;46.65;;;10.90;90.10;;;;;;4958784;28;20067;-81
2021/12/29 01:58:24;;;;;;;70.82;48.25;;;10.90;90.10;;;;;;4957376;29;20121;-81
2021/12/29 02:00:51;;;;;;;69.78;48.53;;;10.90;90.20;;;;;;4957130;29;20380;-82
2021/12/29 02:03:17;;;;;;;74.25;49.25;;;10.90;90.30;;;;;;4956589;28;20067;-81
2021/12/29 02:05:44;;;;;;;70.78;50.15;;;10.90;90.30;;;;;;4957187;28;20078;-81
2021/12/29 02:08:10;;;;;;;76.80;49.60;;;10.90;90.30;;;;;;4957308;29;20035;-81
2021/12/29 02:10:45;;;;;;;70.32;48.45;;;10.90;90.20;;;;;;4957492;29;20528;-80
2021/12/29 02:13:13;;;;;;;76.97;49.65;;;10.90;90.20;;;;;;4956948;28;20039;-81
2021/12/29 02:15:39;;;;;;;79.35;51.45;;;10.90;90.30;;;;;;4946472;29;20043;-80
2021/12/29 02:18:12;;;;;;;67.97;48.17;;;10.90;90.30;;;;;;4956826;29;20438;-81
2021/12/29 02:20:39;;;;;;;73.35;50.38;;;10.90;90.30;;;;;;4957598;29;20043;-81
2021/12/29 02:23:14;;;;;;;73.43;49.70;;;10.90;90.30;;;;;;4958395;28;20043;-80
2021/12/29 02:25:52;;;;;;;71.38;49.22;;;10.90;90.30;;;;;;4955802;29;20483;-81
2021/12/29 02:28:33;;;;;;;72.78;47.28;;;10.90;90.20;;;;;;4956935;28;20059;-80
2021/12/29 02:31:00;;;;;;;72.60;50.00;;;10.90;90.20;;;;;;4956846;29;20118;-81
2021/12/29 02:33:27;;;;;;;72.47;50.08;;;10.90;90.20;;;;;;4956016;28;20369;-81
2021/12/29 02:35:53;;;;;;;67.97;47.75;;;10.90;90.20;;;;;;4956856;28;20042;-80
2021/12/29 02:38:27;;;;;;;70.60;48.22;;;10.80;90.20;;;;;;4956265;28;20125;-80
2021/12/29 02:41:05;;;;;;;78.80;54.17;;;10.80;90.30;;;;;;4966071;28;20047;-81
2021/12/29 02:43:36;;;;;;;67.07;45.92;;;10.80;90.30;;;;;;4956729;29;20047;-81
2021/12/29 02:46:05;;;;;;;69.35;47.50;;;10.70;90.40;;;;;;4956099;29;20041;-81
2021/12/29 02:48:36;;;;;;;66.93;46.55;;;10.70;90.40;;;;;;4956441;28;20046;-81
2021/12/29 02:51:05;;;;;;;74.78;49.20;;;10.70;90.50;;;;;;4955732;28;20039;-81
2021/12/29 02:53:31;;;;;;;71.65;48.55;;;10.60;90.50;;;;;;4955431;28;20046;-81
2021/12/29 02:55:58;;;;;;;75.25;50.45;;;10.60;90.60;;;;;;4956719;29;20589;-80
2021/12/29 02:58:24;;;;;;;71.45;48.33;;;10.60;90.90;;;;;;4956412;29;20039;-81
2021/12/29 03:00:52;;;;;;;68.55;47.33;;;10.50;90.80;;;;;;4955966;29;20043;-82
2021/12/29 03:03:23;;;;;;;67.60;47.10;;;10.50;90.80;;;;;;4955367;28;20051;-82
2021/12/29 03:05:50;;;;;;;69.55;47.78;;;10.50;90.80;;;;;;4956612;28;20040;-82
2021/12/29 03:08:18;;;;;;;71.00;47.78;;;10.60;90.80;;;;;;4956504;28;20051;-82
2021/12/29 03:10:45;;;;;;;69.82;46.92;;;10.60;90.70;;;;;;4949511;28;20054;-83
2021/12/29 03:13:11;;;;;;;72.95;48.55;;;10.60;90.70;;;;;;4956198;29;20031;-82
2021/12/29 03:15:38;;;;;;;73.10;48.72;;;10.60;90.80;;;;;;4956018;28;20035;-82
2021/12/29 03:18:05;;;;;;;73.93;50.47;;;10.50;90.80;;;;;;4956185;29;20094;-82
2021/12/29 03:20:31;;;;;;;71.85;48.65;;;10.60;90.80;;;;;;4954498;29;20047;-82
2021/12/29 03:22:58;;;;;;;77.55;51.85;;;10.60;90.80;;;;;;4956077;28;20047;-82
2021/12/29 03:25:24;;;;;;;73.25;49.50;;;10.60;90.80;;;;;;4954485;28;20381;-82
2021/12/29 03:27:58;;;;;;;83.05;52.38;;;10.60;90.80;;;;;;4956114;28;20058;-82
2021/12/29 03:30:24;;;;;;;75.78;51.53;;;10.60;90.80;;;;;;4955538;28;20042;-82
2021/12/29 03:32:52;;;;;;;78.75;50.97;;;10.70;90.80;;;;;;4955490;28;20046;-82
2021/12/29 03:35:20;;;;;;;77.20;49.72;;;10.70;90.70;;;;;;4964430;28;20505;-81
2021/12/29 03:37:45;;;;;;;90.28;53.95;;;10.70;90.70;;;;;;4954537;28;20062;-81
2021/12/29 03:40:11;;;;;;;79.18;51.92;;;10.60;90.80;;;;;;4955612;29;20036;-82
2021/12/29 03:42:37;;;;;;;86.55;54.10;;;10.60;90.80;;;;;;4955580;29;20043;-82
2021/12/29 03:45:04;;;;;;;86.40;53.47;;;10.60;90.80;;;;;;4954965;28;20437;-81
2021/12/29 03:47:32;;;;;;;83.88;52.63;;;10.60;90.80;;;;;;4955220;28;20420;-82
2021/12/29 03:49:58;;;;;;;98.22;56.72;;;10.60;90.80;;;;;;4956066;28;20039;-81
2021/12/29 03:52:23;;;;;;;95.75;55.90;;;10.60;90.80;;;;;;4986203;28;20388;-81
2021/12/29 03:54:49;;;;;;;104.57;62.63;;;10.70;90.80;;;;;;4955576;29;20110;-81
2021/12/29 03:57:14;;;;;;;95.47;55.08;;;10.60;90.80;;;;;;4954833;28;20075;-81
2021/12/29 03:59:40;;;;;;;91.60;53.80;;;10.50;91.00;;;;;;4955063;28;20031;-81
2021/12/29 04:02:06;;;;;;;94.40;54.28;;;10.40;91.40;;;;;;4955001;29;20073;-81
2021/12/29 04:04:32;;;;;;;96.15;53.00;;;10.40;91.30;;;;;;4955022;28;20043;-82
2021/12/29 04:06:57;;;;;;;95.05;54.67;;;10.40;91.30;;;;;;4955008;29;20513;-81
2021/12/29 04:09:23;;;;;;;99.10;53.72;;;10.40;91.30;;;;;;4955165;29;20099;-81
2021/12/29 04:11:50;;;;;;;94.30;55.17;;;10.40;91.40;;;;;;4954839;28;20047;-81
2021/12/29 04:14:25;;;;;;;88.20;51.60;;;10.40;91.40;;;;;;4955209;28;20487;-81
2021/12/29 04:16:51;;;;;;;89.57;53.53;;;10.40;91.40;;;;;;4955174;28;20051;-82
2021/12/29 04:19:29;;;;;;;97.57;56.25;;;10.40;91.40;;;;;;4954881;28;20391;-81
2021/12/29 04:21:57;;;;;;;127.10;71.13;;;10.40;91.40;;;;;;4942481;28;20039;-82
2021/12/29 04:24:24;;;;;;;95.18;54.45;;;10.40;91.40;;;;;;4955298;28;20065;-82
2021/12/29 04:26:50;;;;;;;101.32;56.78;;;10.50;91.40;;;;;;4955237;28;20472;-82
2021/12/29 04:29:16;;;;;;;106.93;59.63;;;10.50;91.40;;;;;;4954600;28;20050;-82
2021/12/29 04:31:43;;;;;;;104.85;58.80;;;10.50;91.30;;;;;;4939588;28;20031;-82
2021/12/29 04:34:09;;;;;;;94.38;52.80;;;10.50;91.30;;;;;;4955080;28;20352;-82
2021/12/29 04:36:35;;;;;;;114.22;59.55;;;10.40;91.40;;;;;;4955408;28;20066;-82
2021/12/29 04:39:03;;;;;;;103.75;56.60;;;10.40;91.40;;;;;;4954844;29;20035;-82
2021/12/29 04:41:29;;;;;;;95.90;54.03;;;10.40;91.40;;;;;;4953457;28;20035;-82
2021/12/29 04:43:54;;;;;;;102.05;55.95;;;10.40;91.40;;;;;;4953423;29;20114;-82
2021/12/29 04:46:27;;;;;;;101.90;57.17;;;10.30;91.50;;;;;;4953539;28;20032;-82
2021/12/29 04:48:59;;;;;;;105.43;55.67;;;10.30;91.50;;;;;;4955309;28;20094;-82
2021/12/29 04:51:33;;;;;;;87.28;51.75;;;10.40;91.50;;;;;;4954883;29;20098;-82
2021/12/29 04:54:00;;;;;;;91.57;51.63;;;10.30;91.50;;;;;;4953313;28;20537;-82
2021/12/29 04:56:26;;;;;;;89.90;53.08;;;10.30;91.50;;;;;;4954851;29;20050;-82
2021/12/29 04:58:51;;;;;;;81.40;51.53;;;10.40;91.50;;;;;;4954879;29;20471;-82
2021/12/29 05:01:17;;;;;;;70.45;47.60;;;10.30;91.40;;;;;;4954740;28;20043;-83
2021/12/29 05:03:44;;;;;;;66.47;45.05;;;10.30;91.30;;;;;;4954864;28;20192;-82
2021/12/29 05:08:36;;;;;;;64.32;43.58;;;10.30;91.30;;;;;;4955033;28;20035;-83
2021/12/29 05:11:05;;;;;;;57.97;41.13;;;10.40;91.20;;;;;;4955571;28;20058;-84
2021/12/29 05:13:33;;;;;;;58.53;40.83;;;10.30;91.00;;;;;;4954674;29;20050;-82
2021/12/29 05:15:59;;;;;;;47.15;35.47;;;10.30;90.90;;;;;;4954808;28;20043;-81
2021/12/29 05:18:27;;;;;;;56.15;40.38;;;10.30;90.90;;;;;;4958708;28;20055;-82
2021/12/29 05:20:54;;;;;;;46.95;35.97;;;10.30;90.60;;;;;;4958545;29;20035;-81
2021/12/29 05:23:19;;;;;;;46.83;35.83;;;10.30;90.70;;;;;;4957098;29;20050;-82
2021/12/29 05:25:47;;;;;;;48.58;34.90;;;10.20;90.80;;;;;;4958551;28;20051;-82
2021/12/29 05:28:13;;;;;;;49.58;36.05;;;10.20;90.80;;;;;;4958236;28;20031;-82
2021/12/29 05:30:39;;;;;;;44.63;33.95;;;10.30;90.70;;;;;;4958527;29;20487;-83
2021/12/29 05:33:05;;;;;;;53.05;36.47;;;10.30;90.70;;;;;;4958617;29;20035;-82
2021/12/29 05:35:32;;;;;;;53.40;37.92;;;10.30;90.60;;;;;;4969860;28;20047;-81
2021/12/29 05:37:58;;;;;;;49.70;35.70;;;10.30;90.50;;;;;;4958684;29;20499;-81
2021/12/29 05:40:24;;;;;;;52.58;37.30;;;10.30;90.50;;;;;;4957863;28;20047;-82
2021/12/29 05:42:50;;;;;;;48.33;34.38;;;10.30;90.50;;;;;;4958053;28;20657;-82
2021/12/29 05:45:16;;;;;;;45.00;34.35;;;10.30;90.40;;;;;;4958229;28;20484;-84
2021/12/29 05:47:43;;;;;;;37.53;30.58;;;10.30;90.30;;;;;;4958635;28;20050;-83
2021/12/29 05:50:12;;;;;;;51.03;36.80;;;10.30;90.30;;;;;;4958767;28;20091;-83
2021/12/29 05:52:38;;;;;;;36.60;29.00;;;10.20;90.20;;;;;;4958539;29;20463;-83
2021/12/29 05:55:05;;;;;;;36.45;29.75;;;10.20;90.50;;;;;;4958429;29;20170;-83
2021/12/29 05:57:31;;;;;;;37.33;29.08;;;10.20;90.50;;;;;;4958138;28;20035;-83
2021/12/29 05:59:57;;;;;;;40.58;31.35;;;10.20;90.70;;;;;;4958527;29;20043;-83
2021/12/29 06:02:23;;;;;;;37.17;30.00;;;10.20;90.40;;;;;;4958682;28;20030;-84
2021/12/29 06:04:49;;;;;;;34.55;28.83;;;10.20;90.30;;;;;;4965554;28;20142;-84
2021/12/29 06:07:15;;;;;;;39.78;29.73;;;10.20;90.20;;;;;;4966970;28;20223;-84
2021/12/29 06:09:41;;;;;;;39.08;30.85;;;10.20;90.20;;;;;;4959890;29;20059;-83
2021/12/29 06:12:07;;;;;;;30.67;27.35;;;10.20;90.20;;;;;;4959176;29;20472;-84
2021/12/29 06:14:33;;;;;;;36.47;28.63;;;10.20;90.00;;;;;;4959225;28;20419;-84
2021/12/29 06:16:59;;;;;;;35.40;28.75;;;10.20;90.10;;;;;;4958912;29;20035;-84
2021/12/29 06:19:24;;;;;;;33.92;27.52;;;10.20;90.10;;;;;;4958901;29;20058;-85
2021/12/29 06:21:50;;;;;;;34.13;27.75;;;10.30;89.80;;;;;;4989830;28;20038;-84
2021/12/29 06:24:16;;;;;;;36.47;28.88;;;10.20;89.60;;;;;;4961225;28;20027;-81
2021/12/29 06:26:42;;;;;;;33.17;28.65;;;10.30;89.70;;;;;;4965872;28;20487;-78
2021/12/29 06:29:07;;;;;;;38.35;27.90;;;10.30;89.60;;;;;;4956853;28;20039;-79
2021/12/29 06:31:33;;;;;;;30.58;26.02;;;10.30;88.30;;;;;;4956408;29;20491;-79
2021/12/29 06:34:00;;;;;;;29.63;23.75;;;10.20;88.50;;;;;;4956830;28;20149;-78
2021/12/29 06:36:25;;;;;;;30.05;25.50;;;10.20;88.50;;;;;;4945664;28;20027;-79
2021/12/29 06:38:51;;;;;;;33.95;27.40;;;10.20;88.50;;;;;;4956661;28;20488;-80
2021/12/29 06:41:17;;;;;;;32.20;25.58;;;10.10;88.50;;;;;;4956445;28;20122;-78
2021/12/29 06:43:43;;;;;;;34.75;27.45;;;10.10;88.50;;;;;;4957247;29;20534;-78
2021/12/29 06:46:09;;;;;;;34.55;27.30;;;10.10;88.80;;;;;;4956513;28;20027;-78
2021/12/29 06:48:34;;;;;;;38.28;29.00;;;10.00;88.60;;;;;;4956288;28;20510;-77
2021/12/29 06:51:00;;;;;;;38.88;29.52;;;10.10;88.60;;;;;;4960134;28;20502;-78
2021/12/29 06:53:29;;;;;;;37.70;27.90;;;10.10;88.60;;;;;;4955371;29;20031;-79
2021/12/29 06:55:55;;;;;;;51.78;37.47;;;10.10;88.50;;;;;;4955229;28;20047;-79
2021/12/29 06:58:21;;;;;;;47.47;32.20;;;10.10;88.30;;;;;;4956151;28;20034;-80
2021/12/29 07:00:47;;;;;;;41.97;30.65;;;10.00;88.50;;;;;;4959913;28;20397;-76
2021/12/29 07:03:15;;;;;;;45.58;31.38;;;10.00;88.70;;;;;;4955388;28;20089;-78
2021/12/29 07:05:41;;;;;;;41.70;30.77;;;9.90;88.60;;;;;;4955306;28;20047;-78
2021/12/29 07:08:07;;;;;;;45.90;32.72;;;10.00;88.90;;;;;;4955512;28;20042;-79
2021/12/29 07:10:33;;;;;;;42.92;31.40;;;10.00;88.90;;;;;;4956014;28;20035;-81
2021/12/29 07:12:58;;;;;;;46.45;32.13;;;9.90;88.80;;;;;;4956178;28;20098;-86
2021/12/29 07:15:24;;;;;;;46.65;33.53;;;9.90;88.90;;;;;;4956606;28;20408;-82
2021/12/29 07:17:50;;;;;;;45.35;31.90;;;9.80;89.00;;;;;;4986813;28;20043;-82
2021/12/29 07:20:16;;;;;;;44.95;31.70;;;9.80;89.20;;;;;;4955318;28;20047;-81
2021/12/29 07:22:41;;;;;;;43.35;30.88;;;9.80;89.20;;;;;;4952446;28;20075;-81
2021/12/29 07:25:07;;;;;;;42.78;30.92;;;9.80;89.30;;;;;;4964826;28;20583;-81
2021/12/29 07:27:33;;;;;;;46.13;32.90;;;9.90;89.40;;;;;;4956977;28;20135;-81
2021/12/29 07:29:59;;;;;;;39.35;28.20;;;9.90;89.40;;;;;;4970195;28;20039;-82
2021/12/29 07:32:26;;;;;;;42.70;31.25;;;9.90;90.30;;;;;;4955193;28;20049;-81
2021/12/29 07:34:51;;;;;;;44.22;30.60;;;10.00;89.90;;;;;;4955453;29;20043;-82
2021/12/29 07:37:17;;;;;;;44.28;31.10;;;10.10;89.60;;;;;;4953261;28;20046;-82
2021/12/29 07:39:43;;;;;;;47.13;33.78;;;10.00;89.20;;;;;;4957357;28;20058;-81
2021/12/29 07:42:09;;;;;;;51.65;33.83;;;10.00;88.80;;;;;;4959706;28;20118;-81
2021/12/29 07:44:35;;;;;;;46.28;33.05;;;10.00;89.10;;;;;;4955817;28;20047;-81
2021/12/29 07:47:01;;;;;;;53.47;36.67;;;10.10;89.00;;;;;;4955424;28;20050;-82
2021/12/29 07:49:27;;;;;;;46.80;33.30;;;10.00;89.00;;;;;;4953031;28;20444;-82
2021/12/29 07:51:54;;;;;;;50.92;34.95;;;10.10;89.30;;;;;;4955728;28;20094;-82
2021/12/29 07:54:21;;;;;;;53.47;36.35;;;10.10;89.50;;;;;;4954975;28;20031;-84
2021/12/29 07:56:47;;;;;;;54.80;37.90;;;10.10;89.00;;;;;;4956421;28;20070;-88
2021/12/29 07:59:14;;;;;;;55.05;36.50;;;10.10;88.80;;;;;;4956319;28;20429;-85
2021/12/29 08:01:41;;;;;;;57.88;37.45;;;10.10;88.80;;;;;;4987883;28;20090;-85
2021/12/29 08:04:10;;;;;;;52.22;34.90;;;10.00;88.90;;;;;;4957190;29;20043;-86
2021/12/29 08:06:35;;;;;;;46.03;32.30;;;10.00;89.00;;;;;;4962889;28;20031;-85
2021/12/29 08:09:01;;;;;;;71.30;44.88;;;10.00;88.90;;;;;;4962595;28;20039;-83
2021/12/29 08:11:27;;;;;;;56.97;38.30;;;9.90;89.00;;;;;;4960822;28;20430;-86
2021/12/29 08:13:52;;;;;;;53.88;36.15;;;9.80;89.50;;;;;;4955896;28;20416;-84
2021/12/29 08:16:18;;;;;;;47.65;33.42;;;9.80;89.60;;;;;;4955405;29;20383;-87
2021/12/29 08:18:44;;;;;;;51.88;34.83;;;9.70;89.60;;;;;;4955345;29;20134;-86
2021/12/29 08:21:10;;;;;;;55.95;35.80;;;9.80;89.70;;;;;;4955576;29;20411;-86
2021/12/29 08:23:35;;;;;;;53.25;37.25;;;9.70;90.00;;;;;;4956402;29;20075;-85
2021/12/29 08:26:01;;;;;;;51.53;35.55;;;9.80;90.00;;;;;;4957515;29;20035;-86
2021/12/29 08:28:27;;;;;;;51.22;34.42;;;9.90;90.00;;;;;;4956349;29;20091;-86
2021/12/29 08:30:54;;;;;;;54.65;36.75;;;9.90;90.20;;;;;;4955627;29;20432;-84
2021/12/29 08:33:20;;;;;;;58.70;38.88;;;9.90;90.00;;;;;;4954436;29;20382;-84
2021/12/29 08:35:46;;;;;;;57.78;37.42;;;9.90;90.00;;;;;;4953810;29;20043;-82
2021/12/29 08:38:11;;;;;;;66.50;41.75;;;9.90;89.80;;;;;;4955288;28;20121;-83
2021/12/29 08:40:37;;;;;;;60.65;39.67;;;9.90;89.70;;;;;;4954440;29;20042;-81
2021/12/29 08:43:03;;;;;;;83.00;58.08;;;9.80;90.00;;;;;;4955117;29;20082;-82
2021/12/29 08:45:30;;;;;;;180.10;126.18;;;9.70;90.20;;;;;;4955250;28;20039;-83
2021/12/29 08:47:58;;;;;;;80.25;53.35;;;9.60;90.40;;;;;;4954649;29;20047;-83
2021/12/29 08:50:25;;;;;;;54.88;38.33;;;9.50;90.60;;;;;;4956328;28;20082;-82
2021/12/29 08:52:52;;;;;;;54.95;36.28;;;9.60;90.60;;;;;;4959042;29;20058;-82
2021/12/29 08:55:19;;;;;;;57.50;39.17;;;9.60;90.50;;;;;;4958407;29;20388;-81
2021/12/29 08:57:44;;;;;;;59.42;38.53;;;9.70;90.50;;;;;;4959535;29;20092;-82
2021/12/29 09:00:14;;;;;;;80.43;52.72;;;9.60;90.30;;;;;;4959434;28;20551;-82
2021/12/29 09:02:40;;;;;;;47.72;33.33;;;9.60;90.20;;;;;;4958226;29;20066;-81
2021/12/29 09:05:08;;;;;;;50.35;34.28;;;9.60;90.40;;;;;;4959228;29;20071;-80
2021/12/29 09:07:33;;;;;;;50.17;35.17;;;9.60;90.30;;;;;;4959235;28;20042;-81
2021/12/29 09:10:00;;;;;;;50.97;35.35;;;9.70;90.40;;;;;;4958912;28;20425;-80
2021/12/29 09:12:27;;;;;;;48.97;33.78;;;9.80;90.30;;;;;;4957571;28;20495;-82
2021/12/29 09:14:52;;;;;;;51.53;35.05;;;9.90;90.20;;;;;;4958838;29;20507;-81
2021/12/29 09:17:18;;;;;;;43.00;30.40;;;9.80;89.70;;;;;;4976214;28;20066;-80
2021/12/29 09:19:44;;;;;;;43.08;29.42;;;9.70;90.00;;;;;;4961232;28;20070;-80
2021/12/29 09:22:12;;;;;;;41.78;30.73;;;9.70;90.00;;;;;;4957257;28;20452;-82
2021/12/29 09:24:39;;;;;;;44.25;32.28;;;9.70;90.10;;;;;;4958124;28;20035;-82
2021/12/29 09:27:05;;;;;;;42.35;30.77;;;9.60;90.10;;;;;;4955139;28;20039;-81
2021/12/29 09:29:33;;;;;;;45.38;31.33;;;9.70;90.20;;;;;;4959630;28;20483;-81
2021/12/29 09:32:01;;;;;;;49.60;33.80;;;9.70;90.10;;;;;;4956511;28;20031;-82
2021/12/29 09:34:27;;;;;;;62.25;40.00;;;9.70;90.10;;;;;;4955920;28;20039;-83
2021/12/29 09:36:52;;;;;;;65.57;43.85;;;9.60;90.20;;;;;;4961654;28;20051;-80
2021/12/29 09:39:18;;;;;;;55.65;36.85;;;9.70;90.20;;;;;;4953739;28;20035;-81
2021/12/29 09:41:44;;;;;;;57.03;37.30;;;9.70;90.10;;;;;;4956605;28;20047;-81
2021/12/29 09:44:10;;;;;;;56.47;37.88;;;9.80;90.10;;;;;;4956065;28;20035;-81
2021/12/29 09:46:38;;;;;;;53.25;34.85;;;9.90;90.10;;;;;;4955827;28;20050;-86
2021/12/29 09:49:04;;;;;;;60.00;39.95;;;9.90;89.70;;;;;;4958521;28;20130;-87
2021/12/29 09:51:30;;;;;;;47.20;33.85;;;9.90;89.20;;;;;;4959564;29;20083;-85
2021/12/29 09:54:10;;;;;;;50.83;35.28;;;9.90;89.70;;;;;;4957649;28;20492;-82
2021/12/29 09:56:38;;;;;;;56.13;37.88;;;9.90;89.60;;;;;;4956477;28;20047;-83
2021/12/29 09:59:04;;;;;;;50.10;34.03;;;9.80;89.50;;;;;;4989685;28;20042;-82
2021/12/29 10:01:30;;;;;;;50.67;35.10;;;9.90;89.90;;;;;;4954764;28;20040;-82
2021/12/29 10:03:55;;;;;;;46.72;30.55;;;9.90;89.80;;;;;;4956634;29;20053;-82
2021/12/29 10:06:21;;;;;;;44.78;32.53;;;10.00;90.40;;;;;;4956759;28;20047;-82
2021/12/29 10:08:48;;;;;;;62.95;46.13;;;10.10;89.60;;;;;;4954984;28;20062;-82
2021/12/29 10:11:18;;;;;;;45.28;32.67;;;10.00;87.90;;;;;;4957567;28;20090;-82
2021/12/29 10:13:46;;;;;;;45.53;33.05;;;10.00;88.80;;;;;;4956251;28;20111;-82
2021/12/29 10:16:19;;;;;;;50.60;33.40;;;10.00;88.50;;;;;;4955958;28;20090;-82
2021/12/29 10:18:48;;;;;;;45.25;32.25;;;9.90;88.40;;;;;;4965004;28;20086;-82
2021/12/29 10:21:17;;;;;;;49.08;34.10;;;9.90;88.80;;;;;;4954247;28;20034;-82
2021/12/29 10:23:49;;;;;;;45.53;34.28;;;9.90;89.00;;;;;;4957265;28;20126;-82
2021/12/29 10:26:18;;;;;;;50.20;36.15;;;10.00;89.00;;;;;;4955295;28;20039;-82
2021/12/29 10:28:53;;;;;;;46.97;33.60;;;10.10;88.80;;;;;;4958510;28;20465;-81
2021/12/29 10:31:25;;;;;;;47.42;34.35;;;10.20;88.70;;;;;;4957439;28;20074;-82
2021/12/29 10:33:53;;;;;;;49.22;35.08;;;10.30;88.20;;;;;;4952185;28;20047;-82
2021/12/29 10:36:25;;;;;;;48.55;35.03;;;10.40;88.00;;;;;;4954271;29;20059;-82
2021/12/29 10:39:13;;;;;;;45.40;33.38;;;10.30;88.10;;;;;;4952154;29;20098;-81
2021/12/29 10:41:51;;;;;;;47.97;34.10;;;10.40;87.90;;;;;;4949046;28;20042;-81
2021/12/29 10:44:34;;;;;;;43.90;33.95;;;10.40;87.70;;;;;;4985978;28;20499;-81
2021/12/29 10:47:02;;;;;;;44.92;33.97;;;10.50;87.80;;;;;;4979790;28;20534;-82
2021/12/29 10:49:32;;;;;;;45.13;32.33;;;10.50;87.70;;;;;;4955202;29;20047;-82
2021/12/29 10:51:59;;;;;;;40.15;31.10;;;10.60;87.20;;;;;;4956533;28;20058;-82
2021/12/29 10:54:28;;;;;;;42.58;31.85;;;10.60;87.00;;;;;;4954574;28;20031;-82
2021/12/29 10:57:05;;;;;;;46.15;32.72;;;10.60;86.90;;;;;;4955948;28;20075;-83
2021/12/29 10:59:35;;;;;;;46.13;34.83;;;10.60;86.50;;;;;;4956296;28;20127;-84
2021/12/29 11:02:03;;;;;;;43.17;33.88;;;10.50;86.00;;;;;;4955685;29;20079;-83
2021/12/29 11:04:28;;;;;;;44.72;35.20;;;10.50;86.60;;;;;;4956642;29;20082;-82
2021/12/29 11:06:56;;;;;;;41.40;33.30;;;10.40;86.80;;;;;;4955891;28;20071;-82
2021/12/29 11:09:40;;;;;;;44.05;34.75;;;10.40;86.70;;;;;;4956730;29;20079;-83
2021/12/29 11:12:11;;;;;;;46.55;34.65;;;10.50;87.10;;;;;;4955748;28;20043;-84
2021/12/29 11:14:42;;;;;;;47.50;35.97;;;10.60;87.20;;;;;;4954480;28;20090;-79
2021/12/29 11:17:15;;;;;;;53.17;41.08;;;10.60;86.40;;;;;;4954921;28;20039;-80
2021/12/29 11:19:56;;;;;;;45.22;34.17;;;10.50;85.70;;;;;;4958032;28;20102;-80
2021/12/29 11:22:25;;;;;;;41.63;32.75;;;10.30;86.00;;;;;;4945919;28;20043;-82
2021/12/29 11:25:00;;;;;;;42.25;33.80;;;10.30;86.40;;;;;;4956150;29;20090;-83
2021/12/29 11:27:29;;;;;;;43.92;35.22;;;10.40;86.80;;;;;;4954439;29;20067;-82
2021/12/29 11:29:59;;;;;;;43.60;35.30;;;10.40;86.80;;;;;;4955348;28;20027;-81
2021/12/29 11:32:34;;;;;;;45.28;34.30;;;10.40;86.30;;;;;;4954735;29;20043;-81
2021/12/29 11:35:12;;;;;;;46.70;35.67;;;10.40;86.60;;;;;;4951730;29;20452;-81
2021/12/29 11:37:41;;;;;;;40.85;32.60;;;10.50;86.80;;;;;;4946392;29;20070;-81
2021/12/29 11:40:09;;;;;;;45.10;35.53;;;10.60;86.50;;;;;;4956172;28;20027;-82
2021/12/29 11:42:36;;;;;;;53.75;40.05;;;10.60;86.40;;;;;;4958533;28;20110;-81
2021/12/29 11:45:03;;;;;;;46.00;35.83;;;10.70;85.90;;;;;;4953933;28;20046;-81
2021/12/29 11:47:29;;;;;;;45.50;36.17;;;10.70;86.20;;;;;;4945086;29;20039;-82
2021/12/29 11:49:54;;;;;;;52.22;40.20;;;10.80;86.40;;;;;;4955791;28;20043;-82
2021/12/29 11:52:42;;;;;;;44.30;35.58;;;10.90;85.70;;;;;;4959209;28;20042;-81
2021/12/29 11:55:12;;;;;;;49.03;38.17;;;10.90;85.10;;;;;;4952347;28;20042;-82
2021/12/29 11:57:38;;;;;;;;;;;10.90;85.00;;;;;;4955103;29;20038;-83
2021/12/29 12:00:22;;;;;;;41.22;32.90;;;11.00;83.80;;;;;;4953794;29;19910;-82
2021/12/29 12:03:04;;;;;;;45.95;36.80;;;11.00;84.40;;;;;;4952360;28;20059;-82
2021/12/29 12:05:42;;;;;;;46.50;36.80;;;11.20;84.60;;;;;;4953984;28;20113;-82
2021/12/29 12:08:14;;;;;;;46.47;36.20;;;11.40;83.90;;;;;;4953320;29;20062;-82
2021/12/29 12:10:41;;;;;;;45.47;37.00;;;11.40;83.20;;;;;;4953284;28;20039;-81
2021/12/29 12:13:27;;;;;;;47.33;36.95;;;11.50;83.20;;;;;;4953710;28;20420;-82
2021/12/29 12:16:05;;;;;;;47.92;36.63;;;11.70;83.30;;;;;;4952338;28;20574;-82
2021/12/29 12:18:45;;;;;;;47.25;37.67;;;11.90;82.20;;;;;;4952583;28;20043;-82
2021/12/29 12:21:33;;;;;;;46.33;35.72;;;11.90;81.90;;;;;;4952093;28;20396;-82
2021/12/29 12:24:16;;;;;;;45.47;36.47;;;12.00;81.80;;;;;;4952549;28;20075;-82
2021/12/29 12:26:54;;;;;;;48.33;39.00;;;12.10;79.60;;;;;;4983098;28;20120;-82
2021/12/29 12:29:21;;;;;;;48.45;37.95;;;12.30;79.00;;;;;;4952958;28;20038;-82
2021/12/29 12:31:59;;;;;;;44.53;35.38;;;12.50;80.30;;;;;;4953564;28;20035;-82
2021/12/29 12:34:24;;;;;;;44.13;35.67;;;12.80;78.90;;;;;;4951304;29;20032;-82
2021/12/29 12:36:50;;;;;;;45.88;37.78;;;13.00;78.40;;;;;;4952302;28;20672;-82